createdAt,value
2022-10-19T00:00:22.377Z,18.30
2022-10-19T00:03:11.028Z,19.75
2022-10-19T00:05:59.704Z,21.42
2022-10-19T00:08:49.775Z,20.80
2022-10-19T00:11:41.120Z,16.95
2022-10-19T00:14:30.013Z,18.10
2022-10-19T00:17:18.965Z,17.63
2022-10-19T00:20:08.685Z,17.05
2022-10-19T00:22:57.343Z,17.63
2022-10-19T00:25:57.536Z,16.73
2022-10-19T00:28:46.547Z,16.55
2022-10-19T00:31:36.262Z,18.27
2022-10-19T00:34:25.102Z,14.18
2022-10-19T00:37:13.794Z,17.13
2022-10-19T00:40:02.657Z,14.77
2022-10-19T00:42:57.103Z,14.48
2022-10-19T00:45:47.073Z,15.77
2022-10-19T00:48:35.849Z,16.55
2022-10-19T00:51:26.792Z,21.42
2022-10-19T00:54:16.776Z,15.85
2022-10-19T00:57:07.230Z,16.08
2022-10-19T00:59:57.982Z,17.98
2022-10-19T01:02:47.234Z,12.07
2022-10-19T01:05:36.638Z,20.23
2022-10-19T01:08:25.629Z,19.83
2022-10-19T01:11:36.182Z,20.95
2022-10-19T01:14:35.146Z,21.63
2022-10-19T01:17:36.002Z,18.63
2022-10-19T01:20:53.914Z,19.77
2022-10-19T01:24:23.589Z,17.83
2022-10-19T01:27:36.598Z,16.83
2022-10-19T01:30:42.488Z,22.48
2022-10-19T01:33:42.577Z,19.48
2022-10-19T01:36:42.600Z,20.77
2022-10-19T01:39:40.549Z,24.13
2022-10-19T01:42:33.948Z,20.27
2022-10-19T01:45:27.952Z,18.40
2022-10-19T01:48:22.491Z,23.92
2022-10-19T01:51:18.239Z,23.63
2022-10-19T01:54:12.173Z,21.52
2022-10-19T01:57:03.636Z,18.23
2022-10-19T01:59:53.954Z,22.00
2022-10-19T02:02:47.280Z,22.45
2022-10-19T02:05:39.350Z,18.70
2022-10-19T02:08:31.666Z,17.77
2022-10-19T02:11:21.860Z,18.83
2022-10-19T02:14:14.540Z,20.40
2022-10-19T02:17:07.115Z,18.45
2022-10-19T02:19:56.881Z,19.77
2022-10-19T02:22:47.002Z,23.38
2022-10-19T02:25:36.697Z,19.40
2022-10-19T02:28:32.565Z,27.95
2022-10-19T02:31:21.510Z,20.90
2022-10-19T02:34:11.477Z,18.55
2022-10-19T02:37:00.348Z,24.42
2022-10-19T02:39:50.459Z,21.13
2022-10-19T02:42:44.226Z,17.17
2022-10-19T02:45:36.392Z,20.00
2022-10-19T02:48:27.480Z,19.40
2022-10-19T02:51:29.927Z,24.92
2022-10-19T02:54:18.669Z,22.73
2022-10-19T02:57:17.357Z,19.35
2022-10-19T03:00:07.652Z,19.80
2022-10-19T03:02:56.459Z,17.35
2022-10-19T03:05:45.054Z,19.75
2022-10-19T03:08:33.689Z,23.65
2022-10-19T03:11:22.952Z,23.35
2022-10-19T03:14:13.016Z,18.55
2022-10-19T03:17:01.659Z,24.23
2022-10-19T03:19:50.400Z,20.05
2022-10-19T03:22:39.619Z,21.88
2022-10-19T03:25:29.214Z,19.92
2022-10-19T03:28:17.979Z,21.55
2022-10-19T03:31:08.249Z,24.23
2022-10-19T03:33:56.904Z,24.55
2022-10-19T03:36:45.698Z,19.20
2022-10-19T03:39:34.424Z,21.80
2022-10-19T03:42:23.184Z,19.58
2022-10-19T03:45:12.368Z,22.58
2022-10-19T03:48:02.448Z,21.98
2022-10-19T03:50:59.998Z,19.20
2022-10-19T03:53:49.083Z,19.02
2022-10-19T03:56:37.789Z,19.60
2022-10-19T03:59:26.442Z,19.60
2022-10-19T04:02:15.080Z,17.40
2022-10-19T04:05:05.655Z,22.77
2022-10-19T04:07:54.252Z,19.92
2022-10-19T04:10:42.886Z,15.38
2022-10-19T04:13:32.180Z,17.38
2022-10-19T04:16:21.897Z,19.23
2022-10-19T04:19:15.929Z,18.80
2022-10-19T04:22:05.901Z,19.88
2022-10-19T04:24:55.272Z,18.50
2022-10-19T04:27:43.978Z,16.75
2022-10-19T04:30:32.638Z,19.67
2022-10-19T04:33:21.441Z,19.70
2022-10-19T04:36:12.473Z,17.33
2022-10-19T04:39:02.576Z,18.25
2022-10-19T04:41:51.359Z,15.88
2022-10-19T04:44:40.251Z,16.70
2022-10-19T04:47:30.682Z,17.73
2022-10-19T04:50:19.370Z,21.10
2022-10-19T04:53:07.964Z,16.35
2022-10-19T04:55:58.137Z,13.90
2022-10-19T04:58:47.596Z,14.65
2022-10-19T05:01:36.915Z,14.52
2022-10-19T05:04:25.728Z,15.20
2022-10-19T05:07:14.360Z,15.90
2022-10-19T05:10:03.239Z,21.02
2022-10-19T05:12:53.371Z,15.27
2022-10-19T05:15:42.206Z,18.05
2022-10-19T05:18:31.176Z,13.98
2022-10-19T05:21:21.970Z,20.23
2022-10-19T05:24:14.449Z,18.23
2022-10-19T05:27:03.141Z,15.70
2022-10-19T05:29:53.152Z,12.85
2022-10-19T05:32:41.906Z,17.70
2022-10-19T05:35:30.538Z,16.20
2022-10-19T05:38:19.333Z,17.33
2022-10-19T05:41:08.025Z,13.93
2022-10-19T05:43:58.687Z,14.25
2022-10-19T05:46:49.926Z,14.25
2022-10-19T05:49:38.611Z,14.25
2022-10-19T05:52:27.322Z,16.58
2022-10-19T05:55:16.082Z,15.68
2022-10-19T05:58:04.741Z,15.30
2022-10-19T06:00:54.748Z,14.18
2022-10-19T06:03:44.898Z,15.23
2022-10-19T06:06:33.689Z,14.70
2022-10-19T06:09:22.436Z,16.92
2022-10-19T06:12:11.191Z,10.75
2022-10-19T06:14:59.976Z,20.10
2022-10-19T06:17:48.691Z,11.82
2022-10-19T06:20:40.364Z,18.05
2022-10-19T06:23:29.269Z,13.45
2022-10-19T06:26:18.048Z,11.40
2022-10-19T06:29:07.025Z,12.73
2022-10-19T06:31:56.249Z,13.63
2022-10-19T06:34:45.124Z,10.65
2022-10-19T06:37:36.558Z,12.38
2022-10-19T06:40:25.968Z,15.38
2022-10-19T06:43:14.751Z,18.13
2022-10-19T06:46:07.952Z,15.77
2022-10-19T06:48:59.559Z,14.80
2022-10-19T06:51:48.473Z,11.60
2022-10-19T06:54:38.479Z,12.57
2022-10-19T06:57:27.152Z,9.38
2022-10-19T07:00:16.528Z,13.70
2022-10-19T07:03:05.599Z,13.13
2022-10-19T07:05:55.352Z,11.95
2022-10-19T07:08:44.759Z,10.73
2022-10-19T07:11:34.887Z,12.35
2022-10-19T07:14:24.911Z,10.82
2022-10-19T07:17:13.665Z,12.15
2022-10-19T07:20:02.425Z,8.75
2022-10-19T07:22:51.213Z,12.18
2022-10-19T07:25:40.266Z,7.88
2022-10-19T07:28:31.786Z,12.10
2022-10-19T07:31:21.967Z,12.45
2022-10-19T07:34:13.934Z,8.23
2022-10-19T07:37:02.610Z,8.68
2022-10-19T07:39:51.545Z,6.72
2022-10-19T07:42:40.390Z,9.05
2022-10-19T07:45:30.697Z,9.02
2022-10-19T07:48:19.395Z,6.03
2022-10-19T07:51:09.662Z,7.75
2022-10-19T07:53:59.855Z,7.10
2022-10-19T07:56:48.581Z,6.00
2022-10-19T07:59:37.287Z,5.97
2022-10-19T08:02:34.910Z,10.23
2022-10-19T08:05:35.096Z,6.72
2022-10-19T08:08:24.144Z,8.13
2022-10-19T08:11:14.631Z,10.63
2022-10-19T08:14:04.139Z,10.57
2022-10-19T08:16:52.960Z,6.13
2022-10-19T08:19:43.787Z,8.70
2022-10-19T08:22:32.912Z,9.52
2022-10-19T08:25:21.922Z,7.75
2022-10-19T08:28:11.087Z,10.23
2022-10-19T08:31:53.158Z,6.40
2022-10-19T08:34:42.340Z,8.52
2022-10-19T08:37:44.047Z,8.52
2022-10-19T08:40:33.746Z,9.02
2022-10-19T08:43:33.000Z,8.43
2022-10-19T08:46:26.458Z,7.57
2022-10-19T08:49:21.081Z,7.03
2022-10-19T08:52:14.935Z,9.07
2022-10-19T08:55:13.989Z,11.85
2022-10-19T08:58:22.081Z,8.10
2022-10-19T09:01:16.545Z,8.23
2022-10-19T09:04:11.046Z,7.75
2022-10-19T09:07:21.883Z,7.95
2022-10-19T09:10:20.130Z,9.27
2022-10-19T09:13:17.723Z,9.55
2022-10-19T09:16:07.307Z,8.57
2022-10-19T09:18:56.517Z,8.77
2022-10-19T09:21:52.229Z,6.30
2022-10-19T09:24:46.913Z,8.43
2022-10-19T09:27:39.609Z,6.63
2022-10-19T09:30:29.311Z,7.07
2022-10-19T09:33:31.847Z,5.95
2022-10-19T09:36:22.785Z,9.20
2022-10-19T09:39:16.392Z,8.75
2022-10-19T09:42:12.377Z,9.07
2022-10-19T09:45:03.333Z,6.88
2022-10-19T09:47:52.135Z,8.70
2022-10-19T09:50:45.104Z,4.43
2022-10-19T09:53:33.866Z,6.88
2022-10-19T09:56:24.484Z,4.15
2022-10-19T09:59:23.246Z,4.97
2022-10-19T10:02:19.527Z,4.28
2022-10-19T10:05:12.445Z,6.47
2022-10-19T10:08:01.401Z,5.22
2022-10-19T10:10:57.474Z,2.70
2022-10-19T10:13:51.125Z,1.60
2022-10-19T10:16:41.417Z,4.43
2022-10-19T10:19:32.180Z,1.02
2022-10-19T10:22:27.709Z,1.77
2022-10-19T10:25:20.070Z,2.95
2022-10-19T10:28:20.367Z,2.65
2022-10-19T10:31:10.440Z,3.08
2022-10-19T10:34:12.151Z,2.78
2022-10-19T10:37:20.036Z,2.60
2022-10-19T10:40:23.669Z,4.25
2022-10-19T10:43:18.462Z,4.00
2022-10-19T10:46:09.946Z,1.30
2022-10-19T10:49:02.843Z,5.38
2022-10-19T10:51:55.483Z,2.00
2022-10-19T10:55:00.205Z,1.83
2022-10-19T10:57:53.044Z,2.00
2022-10-19T11:00:43.274Z,3.67
2022-10-19T11:03:33.271Z,2.33
2022-10-19T11:09:25.501Z,2.67
2022-10-19T11:12:17.511Z,2.25
2022-10-19T11:15:16.420Z,2.38
2022-10-19T11:18:15.918Z,2.72
2022-10-19T11:21:11.161Z,8.20
2022-10-19T11:24:12.900Z,3.55
2022-10-19T11:27:14.463Z,2.45
2022-10-19T11:30:10.917Z,7.28
2022-10-19T11:33:05.480Z,3.03
2022-10-19T11:35:57.420Z,2.42
2022-10-19T11:38:57.087Z,2.53
2022-10-19T11:41:52.236Z,4.47
2022-10-19T11:44:52.950Z,5.97
2022-10-19T11:47:56.485Z,4.55
2022-10-19T11:50:54.155Z,6.53
2022-10-19T11:53:58.829Z,4.22
2022-10-19T11:57:07.269Z,3.67
2022-10-19T12:00:15.331Z,6.63
2022-10-19T12:03:34.516Z,3.03
2022-10-19T12:06:28.537Z,2.45
2022-10-19T12:09:28.400Z,5.72
2022-10-19T12:12:27.976Z,3.08
2022-10-19T12:15:25.054Z,2.13
2022-10-19T12:18:18.431Z,2.25
2022-10-19T12:21:12.998Z,4.20
2022-10-19T12:24:04.665Z,10.13
2022-10-19T12:26:55.999Z,2.90
2022-10-19T12:29:49.987Z,2.85
2022-10-19T12:32:59.439Z,2.75
2022-10-19T12:36:05.558Z,4.40
2022-10-19T12:39:22.925Z,3.30
2022-10-19T12:42:20.814Z,1.95
2022-10-19T12:45:25.449Z,3.95
2022-10-19T12:48:22.645Z,3.03
2022-10-19T12:51:15.148Z,3.67
2022-10-19T12:54:10.810Z,2.65
2022-10-19T12:57:02.313Z,7.45
2022-10-19T13:00:19.885Z,1.83
2022-10-19T13:03:25.026Z,1.75
2022-10-19T13:06:20.379Z,1.58
2022-10-19T13:09:10.848Z,3.60
2022-10-19T13:12:44.955Z,1.65
2022-10-19T13:16:00.414Z,2.05
2022-10-19T13:19:20.600Z,3.70
2022-10-19T13:22:28.760Z,2.42
2022-10-19T13:25:27.088Z,1.23
2022-10-19T13:28:37.907Z,3.15
2022-10-19T13:31:28.742Z,4.47
2022-10-19T13:34:19.259Z,2.22
2022-10-19T13:37:14.258Z,2.10
2022-10-19T13:40:15.547Z,1.45
2022-10-19T13:43:05.717Z,1.25
2022-10-19T13:45:56.946Z,2.65
2022-10-19T13:49:09.698Z,4.10
2022-10-19T13:52:11.793Z,1.88
2022-10-19T13:55:22.897Z,8.48
2022-10-19T13:58:48.670Z,2.33
2022-10-19T14:01:53.134Z,1.77
2022-10-19T14:04:50.354Z,2.58
2022-10-19T14:07:47.752Z,1.80
2022-10-19T14:11:00.196Z,1.38
2022-10-19T14:13:47.065Z,1.00
2022-10-19T14:16:36.830Z,2.92
2022-10-19T14:19:28.845Z,1.60
2022-10-19T14:22:24.753Z,2.17
2022-10-19T14:25:21.678Z,2.60
2022-10-19T14:28:10.552Z,2.33
2022-10-19T14:31:02.017Z,1.75
2022-10-19T14:33:54.296Z,6.68
2022-10-19T14:36:47.637Z,1.10
2022-10-19T14:39:36.354Z,2.08
2022-10-19T14:42:36.650Z,3.10
2022-10-19T14:45:27.153Z,4.13
2022-10-19T14:48:19.383Z,6.72
2022-10-19T14:51:15.934Z,5.10
2022-10-19T14:54:09.356Z,3.65
2022-10-19T14:57:02.249Z,2.10
2022-10-19T14:59:55.301Z,3.10
2022-10-19T15:02:47.941Z,4.18
2022-10-19T15:05:40.731Z,4.10
2022-10-19T15:08:37.490Z,4.60
2022-10-19T15:11:30.145Z,2.40
2022-10-19T15:14:23.086Z,3.42
2022-10-19T15:17:28.831Z,4.68
2022-10-19T15:20:29.741Z,2.45
2022-10-19T15:23:39.394Z,2.92
2022-10-19T15:26:30.663Z,2.55
2022-10-19T15:29:22.779Z,3.90
2022-10-19T15:32:16.359Z,3.88
2022-10-19T15:35:18.959Z,4.38
2022-10-19T15:38:10.825Z,4.93
2022-10-19T15:41:02.321Z,3.85
2022-10-19T15:43:52.764Z,12.55
2022-10-19T15:47:16.469Z,9.20
2022-10-19T15:50:26.577Z,7.95
2022-10-19T15:53:16.986Z,3.72
2022-10-19T15:56:06.055Z,5.78
2022-10-19T15:58:56.339Z,3.17
2022-10-19T16:01:46.071Z,2.25
2022-10-19T16:04:34.920Z,2.03
2022-10-19T16:07:28.849Z,2.55
2022-10-19T16:10:20.871Z,1.88
2022-10-19T16:13:09.950Z,3.33
2022-10-19T16:16:11.384Z,2.20
2022-10-19T16:19:01.052Z,4.05
2022-10-19T16:21:50.475Z,2.65
2022-10-19T16:24:39.512Z,5.13
2022-10-19T16:27:29.864Z,3.22
2022-10-19T16:30:18.898Z,3.90
2022-10-19T16:33:07.663Z,5.20
2022-10-19T16:35:56.410Z,3.83
2022-10-19T16:38:45.234Z,4.43
2022-10-19T16:41:34.007Z,2.10
2022-10-19T16:44:24.172Z,3.78
2022-10-19T16:47:13.208Z,7.38
2022-10-19T16:50:03.536Z,5.03
2022-10-19T16:53:05.378Z,5.13
2022-10-19T16:55:54.188Z,4.85
2022-10-19T16:58:43.190Z,3.25
2022-10-19T17:01:35.784Z,4.85
2022-10-19T17:04:26.057Z,5.15
2022-10-19T17:07:15.943Z,3.35
2022-10-19T17:10:04.834Z,5.30
2022-10-19T17:12:53.616Z,6.72
2022-10-19T17:15:43.417Z,5.35
2022-10-19T17:18:33.927Z,4.25
2022-10-19T17:21:24.798Z,5.72
2022-10-19T17:24:21.135Z,5.38
2022-10-19T17:27:10.673Z,5.78
2022-10-19T17:29:59.379Z,4.05
2022-10-19T17:32:48.071Z,4.82
2022-10-19T17:35:38.355Z,6.80
2022-10-19T17:38:27.113Z,11.45
2022-10-19T17:41:17.953Z,7.30
2022-10-19T17:44:06.869Z,6.18
2022-10-19T17:46:55.714Z,4.13
2022-10-19T17:49:44.473Z,5.22
2022-10-19T17:52:34.611Z,5.53
2022-10-19T17:55:23.306Z,4.78
2022-10-19T17:58:11.916Z,3.60
2022-10-19T18:01:01.712Z,4.25
2022-10-19T18:03:51.331Z,5.72
2022-10-19T18:06:40.292Z,6.15
2022-10-19T18:09:30.562Z,5.35
2022-10-19T18:12:19.245Z,4.28
2022-10-19T18:15:08.794Z,5.18
2022-10-19T18:17:59.175Z,5.55
2022-10-19T18:20:47.961Z,4.32
2022-10-19T18:23:37.220Z,5.97
2022-10-19T18:26:30.009Z,6.30
2022-10-19T18:29:21.006Z,4.35
2022-10-19T18:32:09.903Z,4.22
2022-10-19T18:34:58.848Z,4.03
2022-10-19T18:37:47.512Z,4.82
2022-10-19T18:40:37.327Z,4.40
2022-10-19T18:43:27.491Z,5.53
2022-10-19T18:46:16.547Z,4.18
2022-10-19T18:49:08.320Z,3.78
2022-10-19T18:51:57.068Z,7.75
2022-10-19T18:54:46.147Z,6.93
2022-10-19T18:57:34.938Z,4.55
2022-10-19T19:00:25.027Z,5.53
2022-10-19T19:03:13.885Z,7.05
2022-10-19T19:06:03.158Z,5.03
2022-10-19T19:08:52.471Z,8.15
2022-10-19T19:11:42.411Z,5.60
2022-10-19T19:14:31.314Z,5.90
2022-10-19T19:17:21.312Z,8.80
2022-10-19T19:20:10.738Z,7.05
2022-10-19T19:22:59.404Z,7.20
2022-10-19T19:25:48.370Z,5.38
2022-10-19T19:28:39.280Z,5.53
2022-10-19T19:31:30.226Z,5.57
2022-10-19T19:34:20.688Z,6.70
2022-10-19T19:37:11.208Z,5.07
2022-10-19T19:40:00.020Z,7.47
2022-10-19T19:42:48.882Z,5.72
2022-10-19T19:45:38.343Z,6.05
2022-10-19T19:48:27.175Z,9.98
2022-10-19T19:51:22.885Z,7.50
2022-10-19T19:54:11.841Z,5.28
2022-10-19T19:57:00.467Z,6.60
2022-10-19T19:59:49.264Z,6.38
2022-10-19T20:02:39.349Z,5.50
2022-10-19T20:05:29.316Z,5.53
2022-10-19T20:08:19.321Z,5.75
2022-10-19T20:11:10.743Z,7.97
2022-10-19T20:13:59.701Z,7.05
2022-10-19T20:16:48.447Z,5.22
2022-10-19T20:19:37.246Z,5.75
2022-10-19T20:22:26.267Z,11.90
2022-10-19T20:25:17.160Z,6.63
2022-10-19T20:28:05.892Z,7.78
2022-10-19T20:31:01.544Z,8.10
2022-10-19T20:33:50.622Z,8.30
2022-10-19T20:36:39.839Z,9.07
2022-10-19T20:39:28.541Z,9.60
2022-10-19T20:42:20.008Z,8.73
2022-10-19T20:45:09.510Z,5.47
2022-10-19T20:47:58.190Z,6.82
2022-10-19T20:50:46.995Z,6.45
2022-10-19T20:53:36.142Z,7.65
2022-10-19T20:56:27.156Z,8.30
2022-10-19T20:59:19.658Z,6.63
2022-10-19T21:02:10.829Z,9.07
2022-10-19T21:04:59.537Z,7.68
2022-10-19T21:07:48.271Z,10.52
2022-10-19T21:10:36.979Z,9.40
2022-10-19T21:13:25.901Z,8.40
2022-10-19T21:16:17.637Z,6.93
2022-10-19T21:19:08.701Z,6.72
2022-10-19T21:22:01.738Z,7.40
2022-10-19T21:24:50.735Z,5.65
2022-10-19T21:27:39.429Z,9.77
2022-10-19T21:30:28.438Z,7.47
2022-10-19T21:33:18.384Z,8.63
2022-10-19T21:36:08.939Z,5.95
2022-10-19T21:38:57.588Z,7.47
2022-10-19T21:41:46.860Z,6.75
2022-10-19T21:44:35.526Z,5.72
2022-10-19T21:47:24.252Z,5.93
2022-10-19T21:50:14.334Z,5.05
2022-10-19T21:53:03.406Z,4.78
2022-10-19T21:55:53.138Z,6.18
2022-10-19T21:58:46.011Z,5.07
2022-10-19T22:01:38.688Z,8.07
2022-10-19T22:04:30.289Z,5.00
2022-10-19T22:07:20.460Z,7.68
2022-10-19T22:10:09.962Z,6.10
2022-10-19T22:12:58.784Z,4.68
2022-10-19T22:15:47.712Z,7.65
2022-10-19T22:18:37.692Z,4.55
2022-10-19T22:21:29.338Z,4.85
2022-10-19T22:24:19.818Z,6.05
2022-10-19T22:27:08.620Z,7.78
2022-10-19T22:29:57.332Z,5.78
2022-10-19T22:32:46.328Z,7.63
2022-10-19T22:35:34.931Z,7.47
2022-10-19T22:38:23.600Z,7.35
2022-10-19T22:42:07.470Z,7.40
2022-10-19T22:45:16.470Z,7.90
2022-10-19T22:48:05.699Z,11.27
2022-10-19T22:50:54.931Z,6.43
2022-10-19T22:53:43.577Z,5.93
2022-10-19T22:56:32.401Z,6.00
2022-10-19T22:59:21.102Z,5.68
2022-10-19T23:02:11.149Z,3.58
2022-10-19T23:04:59.747Z,5.80
2022-10-19T23:07:48.488Z,4.70
2022-10-19T23:10:37.140Z,4.13
2022-10-19T23:13:26.098Z,5.22
2022-10-19T23:16:15.119Z,5.95
2022-10-19T23:19:07.404Z,5.47
2022-10-19T23:21:55.909Z,6.70
2022-10-19T23:24:44.542Z,6.20
2022-10-19T23:27:33.571Z,5.25
2022-10-19T23:30:22.849Z,5.60
2022-10-19T23:33:11.856Z,6.30
2022-10-19T23:36:06.080Z,6.05
2022-10-19T23:38:56.329Z,6.60
2022-10-19T23:41:44.946Z,7.78
2022-10-19T23:44:34.175Z,6.60
2022-10-19T23:47:23.025Z,6.22
2022-10-19T23:50:11.591Z,7.72
2022-10-19T23:53:01.584Z,9.25
2022-10-19T23:55:50.800Z,10.88
2022-10-19T23:58:40.953Z,7.70
